UAL1835 KRDU-KBOS
Flight info
| Callsign | UAL1835 |
|---|---|
| Flight time | N/A |
| Altitude | 35000 |
| Route | BEXGO5 BOUSY GEARS BBOBO Q22 RBV Q419 JFK ROBUC3 |
| Aircraft | A21N/M-VGDW/C |
Departure
| Time | 2026-05-06 23:35 |
|---|---|
| Airport | Raleigh-Durham International Airport (KRDU) |
Arrival
| Time | N/A |
|---|---|
| Airport | Boston Logan International Airport (KBOS) |
| Time | Latitude | Longitude | Altitude | Speed | Heading |
|---|---|---|---|---|---|
| 2026-05-06 23:12 | 35.87660 | -78.79514 | 383 ft | 0 kts | 145° |
| 2026-05-06 23:23 | 35.87665 | -78.79519 | 383 ft | 3 kts | 145° |
| 2026-05-06 23:23 | 35.87681 | -78.79532 | 383 ft | 3 kts | 145° |
| 2026-05-06 23:23 | 35.87696 | -78.79545 | 383 ft | 3 kts | 145° |
| 2026-05-06 23:24 | 35.87697 | -78.79546 | 383 ft | 0 kts | 145° |
| 2026-05-06 23:24 | 35.87700 | -78.79547 | 383 ft | 1 kts | 137° |
| 2026-05-06 23:25 | 35.87707 | -78.79556 | 383 ft | 0 kts | 118° |
| 2026-05-06 23:25 | 35.87707 | -78.79555 | 383 ft | 0 kts | 117° |
| 2026-05-06 23:25 | 35.87714 | -78.79548 | 383 ft | 4 kts | 62° |
| 2026-05-06 23:26 | 35.87766 | -78.79501 | 385 ft | 9 kts | 32° |
| 2026-05-06 23:26 | 35.87798 | -78.79470 | 386 ft | 2 kts | 38° |
| 2026-05-06 23:26 | 35.87805 | -78.79463 | 386 ft | 4 kts | 41° |
| 2026-05-06 23:26 | 35.87817 | -78.79448 | 387 ft | 1 kts | 46° |
| 2026-05-06 23:27 | 35.87845 | -78.79411 | 388 ft | 15 kts | 47° |
| 2026-05-06 23:27 | 35.87915 | -78.79320 | 390 ft | 12 kts | 45° |
| 2026-05-06 23:27 | 35.87979 | -78.79248 | 391 ft | 16 kts | 43° |
| 2026-05-06 23:27 | 35.88071 | -78.79133 | 393 ft | 21 kts | 47° |
| 2026-05-06 23:28 | 35.88190 | -78.78978 | 392 ft | 28 kts | 45° |
| 2026-05-06 23:28 | 35.88321 | -78.78817 | 395 ft | 24 kts | 46° |
| 2026-05-06 23:28 | 35.88421 | -78.78690 | 398 ft | 17 kts | 47° |
| 2026-05-06 23:28 | 35.88484 | -78.78612 | 401 ft | 9 kts | 43° |
| 2026-05-06 23:29 | 35.88516 | -78.78575 | 401 ft | 4 kts | 43° |
| 2026-05-06 23:29 | 35.88547 | -78.78540 | 401 ft | 8 kts | 43° |
| 2026-05-06 23:29 | 35.88597 | -78.78484 | 404 ft | 14 kts | 43° |
| 2026-05-06 23:29 | 35.88702 | -78.78356 | 405 ft | 29 kts | 47° |
| 2026-05-06 23:30 | 35.88841 | -78.78174 | 407 ft | 27 kts | 46° |
| 2026-05-06 23:30 | 35.88962 | -78.78017 | 407 ft | 23 kts | 53° |
| 2026-05-06 23:30 | 35.89027 | -78.77866 | 410 ft | 16 kts | 43° |
| 2026-05-06 23:30 | 35.89095 | -78.77785 | 408 ft | 11 kts | 47° |
| 2026-05-06 23:31 | 35.89136 | -78.77728 | 408 ft | 7 kts | 47° |
| 2026-05-06 23:31 | 35.89160 | -78.77696 | 408 ft | 6 kts | 47° |
| 2026-05-06 23:31 | 35.89174 | -78.77678 | 404 ft | 2 kts | 45° |
| 2026-05-06 23:31 | 35.89205 | -78.77657 | 411 ft | 6 kts | 20° |
| 2026-05-06 23:32 | 35.89246 | -78.77664 | 417 ft | 9 kts | 331° |
| 2026-05-06 23:32 | 35.89277 | -78.77694 | 418 ft | 1 kts | 321° |
| 2026-05-06 23:32 | 35.89277 | -78.77695 | 418 ft | 0 kts | 320° |
| 2026-05-06 23:32 | 35.89280 | -78.77698 | 419 ft | 2 kts | 319° |
| 2026-05-06 23:33 | 35.89286 | -78.77706 | 419 ft | 0 kts | 316° |
| 2026-05-06 23:33 | 35.89323 | -78.77750 | 420 ft | 10 kts | 315° |
| 2026-05-06 23:34 | 35.89353 | -78.77803 | 416 ft | 6 kts | 293° |
| 2026-05-06 23:34 | 35.89333 | -78.77868 | 413 ft | 10 kts | 226° |
| 2026-05-06 23:34 | 35.89326 | -78.77876 | 414 ft | 0 kts | 225° |
| 2026-05-06 23:34 | 35.89317 | -78.77887 | 412 ft | 12 kts | 225° |
| 2026-05-06 23:35 | 35.89079 | -78.78181 | 409 ft | 87 kts | 225° |
| 2026-05-06 23:35 | 35.88473 | -78.78928 | 397 ft | 158 kts | 225° |
| 2026-05-06 23:35 | 35.87589 | -78.80019 | 796 ft | 197 kts | 225° |
| 2026-05-06 23:35 | 35.86569 | -78.81217 | 1746 ft | 200 kts | 223° |
| 2026-05-06 23:36 | 35.85518 | -78.82359 | 2789 ft | 210 kts | 224° |
| 2026-05-06 23:36 | 35.84373 | -78.83611 | 3538 ft | 226 kts | 224° |
| 2026-05-06 23:36 | 35.83171 | -78.84922 | 4435 ft | 240 kts | 224° |
| 2026-05-06 23:36 | 35.81878 | -78.86308 | 5230 ft | 250 kts | 224° |
| 2026-05-06 23:37 | 35.80584 | -78.87763 | 5586 ft | 248 kts | 235° |
| 2026-05-06 23:37 | 35.79911 | -78.89680 | 5852 ft | 251 kts | 265° |
| 2026-05-06 23:37 | 35.80224 | -78.91756 | 6551 ft | 253 kts | 296° |
| 2026-05-06 23:37 | 35.81307 | -78.93509 | 7543 ft | 260 kts | 308° |
| 2026-05-06 23:38 | 35.82572 | -78.95101 | 8567 ft | 264 kts | 310° |
| 2026-05-06 23:38 | 35.84129 | -78.96392 | 9577 ft | 280 kts | 335° |
| 2026-05-06 23:38 | 35.86118 | -78.96675 | 10410 ft | 305 kts | 1° |
| 2026-05-06 23:38 | 35.88240 | -78.95828 | 10896 ft | 339 kts | 26° |
| 2026-05-06 23:39 | 35.90114 | -78.93860 | 11424 ft | 368 kts | 48° |
| 2026-05-06 23:39 | 35.91594 | -78.91217 | 12017 ft | 387 kts | 54° |
| 2026-05-06 23:39 | 35.93080 | -78.88360 | 12651 ft | 403 kts | 54° |
| 2026-05-06 23:39 | 35.94665 | -78.85442 | 13325 ft | 416 kts | 52° |
| 2026-05-06 23:40 | 35.96384 | -78.82499 | 14111 ft | 423 kts | 50° |
| 2026-05-06 23:40 | 35.98195 | -78.79595 | 14944 ft | 428 kts | 47° |
| 2026-05-06 23:40 | 36.00076 | -78.76742 | 15741 ft | 434 kts | 46° |
| 2026-05-06 23:40 | 36.02048 | -78.73884 | 16545 ft | 439 kts | 44° |
| 2026-05-06 23:41 | 36.03391 | -78.71998 | 17063 ft | 442 kts | 43° |
| 2026-05-06 23:41 | 36.06167 | -78.68212 | 18115 ft | 450 kts | 42° |
| 2026-05-06 23:41 | 36.07590 | -78.66319 | 18562 ft | 453 kts | 41° |
| 2026-05-06 23:41 | 36.09768 | -78.63469 | 19224 ft | 458 kts | 41° |
| 2026-05-06 23:42 | 36.11999 | -78.60595 | 19913 ft | 463 kts | 40° |
| 2026-05-06 23:42 | 36.14247 | -78.57731 | 20586 ft | 468 kts | 40° |
| 2026-05-06 23:42 | 36.16539 | -78.54835 | 21251 ft | 473 kts | 40° |
| 2026-05-06 23:42 | 36.18867 | -78.51910 | 21905 ft | 479 kts | 40° |
| 2026-05-06 23:43 | 36.21199 | -78.48990 | 22567 ft | 483 kts | 40° |
| 2026-05-06 23:43 | 36.23586 | -78.46011 | 23218 ft | 488 kts | 40° |
| 2026-05-06 23:43 | 36.25981 | -78.43028 | 23806 ft | 493 kts | 40° |
| 2026-05-06 23:43 | 36.28507 | -78.40129 | 24356 ft | 493 kts | 35° |
| 2026-05-06 23:44 | 36.31199 | -78.37452 | 24883 ft | 496 kts | 32° |
| 2026-05-06 23:44 | 36.33934 | -78.34881 | 25414 ft | 500 kts | 32° |
| 2026-05-06 23:44 | 36.36761 | -78.32286 | 25947 ft | 504 kts | 31° |
| 2026-05-06 23:44 | 36.39572 | -78.29730 | 26453 ft | 508 kts | 31° |
| 2026-05-06 23:45 | 36.42430 | -78.27134 | 27140 ft | 508 kts | 31° |
| 2026-05-06 23:45 | 36.45295 | -78.24522 | 27855 ft | 508 kts | 31° |
| 2026-05-06 23:45 | 36.48145 | -78.21906 | 28585 ft | 508 kts | 31° |
| 2026-05-06 23:45 | 36.50968 | -78.19275 | 29285 ft | 508 kts | 31° |
| 2026-05-06 23:46 | 36.53768 | -78.16643 | 29983 ft | 508 kts | 31° |
| 2026-05-06 23:46 | 36.56600 | -78.13963 | 30577 ft | 508 kts | 31° |
| 2026-05-06 23:46 | 36.59400 | -78.11298 | 31149 ft | 509 kts | 30° |
| 2026-05-06 23:46 | 36.62225 | -78.08605 | 31704 ft | 509 kts | 30° |
| 2026-05-06 23:47 | 36.65014 | -78.05947 | 32250 ft | 509 kts | 28° |
| 2026-05-06 23:47 | 36.67848 | -78.03248 | 32801 ft | 509 kts | 28° |
| 2026-05-06 23:47 | 36.70645 | -78.00587 | 33355 ft | 509 kts | 27° |
| 2026-05-06 23:47 | 36.73455 | -77.97914 | 33731 ft | 501 kts | 26° |
| 2026-05-06 23:48 | 36.76220 | -77.95297 | 33890 ft | 501 kts | 26° |
| 2026-05-06 23:48 | 36.81576 | -77.89486 | 33945 ft | 529 kts | 40° |
| 2026-05-06 23:49 | 36.86096 | -77.82205 | 33946 ft | 532 kts | 45° |
| 2026-05-06 23:49 | 36.90389 | -77.74685 | 33943 ft | 532 kts | 46° |
| 2026-05-06 23:50 | 36.94642 | -77.67063 | 33937 ft | 533 kts | 46° |
| 2026-05-06 23:50 | 37.00952 | -77.55671 | 33918 ft | 531 kts | 46° |
| 2026-05-06 23:51 | 37.05173 | -77.48046 | 33921 ft | 531 kts | 46° |
| 2026-05-06 23:51 | 37.09527 | -77.40625 | 33935 ft | 516 kts | 34° |
| 2026-05-06 23:52 | 37.12213 | -77.37876 | 33949 ft | 490 kts | 18° |
| 2026-05-06 23:52 | 37.15225 | -77.36067 | 33947 ft | 472 kts | 8° |
| 2026-05-06 23:52 | 37.21397 | -77.33410 | 33924 ft | 466 kts | 5° |
| 2026-05-06 23:53 | 37.27570 | -77.30946 | 33926 ft | 475 kts | 5° |
| 2026-05-06 23:53 | 37.30742 | -77.29683 | 34305 ft | 474 kts | 5° |
| 2026-05-06 23:53 | 37.33865 | -77.28399 | 34616 ft | 463 kts | 5° |
| 2026-05-06 23:54 | 37.36896 | -77.27139 | 34780 ft | 465 kts | 5° |
| 2026-05-06 23:54 | 37.39994 | -77.25853 | 34851 ft | 471 kts | 5° |
| 2026-05-06 23:54 | 37.46338 | -77.23213 | 34903 ft | 491 kts | 6° |
| 2026-05-06 23:55 | 37.52898 | -77.20434 | 34900 ft | 502 kts | 6° |
| 2026-05-06 23:55 | 37.59454 | -77.17567 | 34911 ft | 496 kts | 6° |
| 2026-05-06 23:56 | 37.65966 | -77.14687 | 34913 ft | 501 kts | 9° |
| 2026-05-06 23:56 | 37.72436 | -77.10888 | 34917 ft | 515 kts | 15° |
| 2026-05-06 23:57 | 37.78746 | -77.06679 | 34914 ft | 516 kts | 16° |
| 2026-05-06 23:57 | 37.85096 | -77.02315 | 34912 ft | 518 kts | 17° |
| 2026-05-06 23:58 | 37.91397 | -76.97947 | 34913 ft | 519 kts | 17° |
| 2026-05-06 23:58 | 37.97723 | -76.93544 | 34912 ft | 518 kts | 17° |
| 2026-05-06 23:59 | 38.04047 | -76.89133 | 34909 ft | 519 kts | 17° |
| 2026-05-06 23:59 | 38.10411 | -76.84694 | 34905 ft | 520 kts | 17° |
| 2026-05-07 00:00 | 38.16745 | -76.80266 | 34895 ft | 520 kts | 17° |
| 2026-05-07 00:00 | 38.23020 | -76.75713 | 34895 ft | 529 kts | 22° |
| 2026-05-07 00:01 | 38.29005 | -76.69991 | 34887 ft | 541 kts | 28° |
| 2026-05-07 00:01 | 38.34799 | -76.63869 | 34885 ft | 543 kts | 30° |
| 2026-05-07 00:02 | 38.40521 | -76.57625 | 34886 ft | 543 kts | 30° |
| 2026-05-07 00:02 | 38.46316 | -76.51351 | 34889 ft | 544 kts | 30° |
| 2026-05-07 00:03 | 38.52073 | -76.45149 | 34887 ft | 544 kts | 30° |
| 2026-05-07 00:03 | 38.57867 | -76.38905 | 34894 ft | 544 kts | 29° |
| 2026-05-07 00:04 | 38.63652 | -76.32669 | 34893 ft | 545 kts | 30° |
| 2026-05-07 00:04 | 38.69433 | -76.26425 | 34883 ft | 545 kts | 30° |
| 2026-05-07 00:05 | 38.75227 | -76.20149 | 34886 ft | 545 kts | 30° |
| 2026-05-07 00:05 | 38.81004 | -76.13878 | 34883 ft | 545 kts | 30° |
| 2026-05-07 00:06 | 38.86804 | -76.07571 | 34886 ft | 546 kts | 30° |
| 2026-05-07 00:06 | 38.92590 | -76.01258 | 34886 ft | 546 kts | 30° |
| 2026-05-07 00:07 | 38.98322 | -75.94754 | 34886 ft | 549 kts | 32° |
| 2026-05-07 00:07 | 39.03975 | -75.88100 | 34882 ft | 552 kts | 32° |
| 2026-05-07 00:08 | 39.09602 | -75.81394 | 34874 ft | 552 kts | 32° |
| 2026-05-07 00:08 | 39.15216 | -75.74665 | 34868 ft | 552 kts | 32° |
| 2026-05-07 00:09 | 39.20856 | -75.67892 | 34861 ft | 553 kts | 32° |
| 2026-05-07 00:09 | 39.26448 | -75.61169 | 34860 ft | 554 kts | 32° |
| 2026-05-07 00:10 | 39.32105 | -75.54360 | 34866 ft | 554 kts | 32° |
| 2026-05-07 00:10 | 39.37727 | -75.47577 | 34868 ft | 553 kts | 32° |
| 2026-05-07 00:11 | 39.43352 | -75.40775 | 34870 ft | 553 kts | 32° |
| 2026-05-07 00:11 | 39.48996 | -75.33937 | 34872 ft | 553 kts | 32° |
| 2026-05-07 00:12 | 39.54611 | -75.27120 | 34870 ft | 554 kts | 32° |
| 2026-05-07 00:12 | 39.60220 | -75.20294 | 34870 ft | 553 kts | 32° |
| 2026-05-07 00:13 | 39.65806 | -75.13495 | 34864 ft | 552 kts | 31° |
| 2026-05-07 00:13 | 39.71511 | -75.06855 | 34864 ft | 551 kts | 30° |
| 2026-05-07 00:14 | 39.77289 | -75.00337 | 34867 ft | 549 kts | 29° |
| 2026-05-07 00:14 | 39.83073 | -74.93842 | 34866 ft | 550 kts | 29° |
| 2026-05-07 00:15 | 39.88893 | -74.87389 | 34867 ft | 546 kts | 26° |
| 2026-05-07 00:15 | 39.94947 | -74.81433 | 34866 ft | 540 kts | 23° |
| 2026-05-07 00:16 | 40.01015 | -74.75777 | 34863 ft | 544 kts | 26° |
| 2026-05-07 00:16 | 40.03924 | -74.72478 | 34860 ft | 556 kts | 32° |
| 2026-05-07 00:16 | 40.06670 | -74.68937 | 34855 ft | 560 kts | 35° |
| 2026-05-07 00:17 | 40.12050 | -74.61464 | 34855 ft | 563 kts | 37° |
| 2026-05-07 00:17 | 40.17288 | -74.53874 | 34856 ft | 564 kts | 38° |
| 2026-05-07 00:18 | 40.22846 | -74.46903 | 34860 ft | 551 kts | 29° |
| 2026-05-07 00:18 | 40.28713 | -74.40431 | 34860 ft | 548 kts | 28° |
| 2026-05-07 00:19 | 40.34514 | -74.34171 | 34752 ft | 527 kts | 27° |
| 2026-05-07 00:19 | 40.37349 | -74.31116 | 34450 ft | 521 kts | 27° |
| 2026-05-07 00:19 | 40.40127 | -74.28146 | 34147 ft | 522 kts | 27° |
| 2026-05-07 00:20 | 40.42971 | -74.25121 | 33835 ft | 525 kts | 27° |
| 2026-05-07 00:20 | 40.45793 | -74.22122 | 33506 ft | 527 kts | 27° |
| 2026-05-07 00:20 | 40.48659 | -74.19071 | 33126 ft | 528 kts | 28° |
| 2026-05-07 00:20 | 40.51484 | -74.16048 | 32689 ft | 528 kts | 28° |
| 2026-05-07 00:21 | 40.53924 | -74.13106 | 32290 ft | 542 kts | 40° |
| 2026-05-07 00:21 | 40.56148 | -74.09001 | 31858 ft | 559 kts | 56° |
| 2026-05-07 00:21 | 40.57703 | -74.04234 | 31427 ft | 570 kts | 67° |
| 2026-05-07 00:21 | 40.58864 | -73.99293 | 30911 ft | 567 kts | 71° |
| 2026-05-07 00:22 | 40.59899 | -73.94292 | 30364 ft | 558 kts | 72° |
| 2026-05-07 00:22 | 40.60854 | -73.89438 | 29814 ft | 550 kts | 73° |
| 2026-05-07 00:22 | 40.61799 | -73.84554 | 29174 ft | 547 kts | 73° |
| 2026-05-07 00:22 | 40.62838 | -73.79780 | 28553 ft | 546 kts | 64° |
| 2026-05-07 00:23 | 40.64574 | -73.75363 | 27971 ft | 538 kts | 49° |
| 2026-05-07 00:23 | 40.66844 | -73.71488 | 27387 ft | 533 kts | 42° |
| 2026-05-07 00:23 | 40.68449 | -73.69040 | 27156 ft | 528 kts | 41° |
| 2026-05-07 00:23 | 40.71733 | -73.64268 | 26959 ft | 527 kts | 39° |
| 2026-05-07 00:24 | 40.74223 | -73.60737 | 26907 ft | 528 kts | 39° |
| 2026-05-07 00:24 | 40.75896 | -73.58377 | 26886 ft | 530 kts | 39° |
| 2026-05-07 00:24 | 40.78429 | -73.54799 | 26878 ft | 530 kts | 39° |
| 2026-05-07 00:24 | 40.80954 | -73.51208 | 26873 ft | 530 kts | 39° |
| 2026-05-07 00:25 | 40.83419 | -73.47667 | 26871 ft | 530 kts | 40° |
| 2026-05-07 00:25 | 40.85916 | -73.44035 | 26870 ft | 531 kts | 40° |
| 2026-05-07 00:25 | 40.88256 | -73.40610 | 26867 ft | 532 kts | 40° |